Saturday, September 24, 2016, 6:30 PM EDT

KJYO, Leesburg / Godfrey

Location: Leesburg, VA, United States Lat: 39.083
Local Time: 6:30 PM EDT (22:30 GMT) Lon: -77.567
Time Zone: US/Eastern Elev: 390 ft

Show me the last for .
Show Decoded

2016-09-24 18:15 METAR KJYO 242215Z AUTO 05005KT 10SM CLR 23/16 A3010 RMK AO2 =
2016-09-24 17:55 METAR KJYO 242155Z AUTO 04004KT 10SM CLR 23/16 A3009 RMK AO2 =
2016-09-24 17:35 METAR KJYO 242135Z AUTO 02004KT 10SM SCT060 23/16 A3009 RMK AO2 =
2016-09-24 17:15 METAR KJYO 242115Z AUTO 05006KT 10SM BKN060 23/16 A3009 RMK AO2 =
2016-09-24 16:55 METAR KJYO 242055Z AUTO 33006KT 10SM SCT050 24/16 A3009 RMK AO2 =
2016-09-24 16:35 METAR KJYO 242035Z AUTO 03006KT 10SM SCT050 23/16 A3009 RMK AO2 =
2016-09-24 16:15 METAR KJYO 242015Z AUTO 33007KT 10SM SCT050 25/17 A3009 RMK AO2 =
2016-09-24 15:55 METAR KJYO 241955Z AUTO 03005KT 10SM SCT048 BKN050 24/17 A3009 RMK AO2 =
2016-09-24 15:35 METAR KJYO 241935Z AUTO 03006KT 10SM SCT036 BKN042 OVC050 23/17 A3009 RMK AO2 =
2016-09-24 15:15 METAR KJYO 241915Z AUTO 02008G14KT 10SM SCT036 BKN050 BKN060 24/17 A3010 RMK AO2
                 =
2016-09-24 14:55 METAR KJYO 241855Z AUTO 03007KT 10SM SCT040 25/17 A3010 RMK AO2 =
2016-09-24 14:35 METAR KJYO 241835Z AUTO 03007KT 10SM SCT031 OVC038 23/17 A3011 RMK AO2 =
2016-09-24 14:15 METAR KJYO 241815Z AUTO 33006G16KT 10SM BKN029 OVC036 23/17 A3011 RMK AO2 =
2016-09-24 13:55 METAR KJYO 241755Z AUTO 02007KT 310V040 10SM OVC029 23/17 A3011 RMK AO2 =
2016-09-24 13:35 METAR KJYO 241735Z AUTO 35008KT 320V020 10SM OVC029 23/17 A3012 RMK AO2 =
2016-09-24 13:15 METAR KJYO 241715Z AUTO 36006G16KT 10SM OVC029 24/18 A3012 RMK AO2 =
2016-09-24 12:55 METAR KJYO 241655Z AUTO 02008KT 320V040 10SM OVC027 23/18 A3012 RMK AO2 =
2016-09-24 12:35 METAR KJYO 241635Z AUTO 03008KT 350V050 10SM OVC027 23/18 A3013 RMK AO2 =
2016-09-24 12:15 METAR KJYO 241615Z AUTO 01006G15KT 320V050 10SM OVC027 23/18 A3013 RMK AO2 =
2016-09-24 11:55 METAR KJYO 241555Z AUTO 36008KT 320V030 10SM OVC027 23/18 A3013 RMK AO2 =
2016-09-24 11:35 METAR KJYO 241535Z AUTO 02006G14KT 10SM OVC027 23/18 A3012 RMK AO2 =
2016-09-24 11:15 METAR KJYO 241515Z AUTO 03007KT 350V050 10SM OVC027 23/18 A3013 RMK AO2 =
2016-09-24 10:55 METAR KJYO 241455Z AUTO 02006G17KT 10SM OVC025 23/19 A3012 RMK AO2 =
2016-09-24 10:35 METAR KJYO 241435Z AUTO 02011G15KT 10SM OVC023 23/19 A3012 RMK AO2 =
2016-09-24 10:15 METAR KJYO 241415Z AUTO 04011G18KT 010V070 10SM BKN021 23/19 A3012 RMK AO2 =
2016-09-24 09:55 METAR KJYO 241355Z AUTO 03010G17KT 10SM SCT021 23/19 A3011 RMK AO2 =
2016-09-24 09:35 METAR KJYO 241335Z AUTO 03008G19KT 340V040 10SM CLR 23/20 A3010 RMK AO2 =
2016-09-24 09:15 METAR KJYO 241315Z AUTO 03008KT 350V050 10SM CLR 23/20 A3010 RMK AO2 =
2016-09-24 08:55 METAR KJYO 241255Z AUTO 03006G15KT 10SM CLR 22/20 A3009 RMK AO2 =
2016-09-24 08:35 METAR KJYO 241235Z AUTO 36005KT 10SM CLR 22/19 A3008 RMK AO2 =
2016-09-24 08:15 METAR KJYO 241215Z AUTO 33006KT 10SM CLR 22/19 A3008 RMK AO2 =
2016-09-24 07:55 METAR KJYO 241155Z AUTO 31005KT 10SM CLR 21/19 A3008 RMK AO2 =
2016-09-24 07:35 METAR KJYO 241135Z AUTO 32006KT 10SM CLR 21/19 A3007 RMK AO2 =
2016-09-24 07:15 METAR KJYO 241115Z AUTO 01006KT 310V030 10SM CLR 21/19 A3006 RMK AO2 =
2016-09-24 06:55 METAR KJYO 241055Z AUTO 03007KT 10SM CLR 22/18 A3005 RMK AO2 =
2016-09-24 06:35 METAR KJYO 241035Z AUTO 03006G14KT 10SM CLR 22/18 A3004 RMK AO2 =
2016-09-24 06:15 METAR KJYO 241015Z AUTO 02007G15KT 10SM SCT120 22/18 A3004 RMK AO2 =
2016-09-24 05:55 METAR KJYO 240955Z AUTO 01008KT 10SM BKN120 21/18 A3003 RMK AO2 =
2016-09-24 05:35 METAR KJYO 240935Z AUTO 01007G17KT 10SM BKN120 21/18 A3003 RMK AO2 =
2016-09-24 05:15 METAR KJYO 240915Z AUTO 01009KT 10SM OVC120 21/18 A3003 RMK AO2 =
2016-09-24 04:55 METAR KJYO 240855Z AUTO 34005KT 10SM OVC120 21/19 A3002 RMK AO2 =
2016-09-24 04:35 METAR KJYO 240835Z AUTO 00000KT 10SM BKN120 19/19 A3002 RMK AO2 =
2016-09-24 04:15 METAR KJYO 240815Z AUTO 00000KT 10SM CLR 19/18 A3002 RMK AO2 =
2016-09-24 03:55 METAR KJYO 240755Z AUTO 00000KT 10SM CLR 20/19 A3002 RMK AO2 =
2016-09-24 03:35 METAR KJYO 240735Z AUTO 00000KT 10SM CLR 21/19 A3001 RMK AO2 =
2016-09-24 03:15 METAR KJYO 240715Z AUTO 00000KT 10SM CLR 21/19 A3001 RMK AO2 =
2016-09-24 02:55 METAR KJYO 240655Z AUTO 00000KT 10SM CLR 21/19 A3001 RMK AO2 =
2016-09-24 02:35 METAR KJYO 240635Z AUTO 00000KT 10SM CLR 20/19 A3001 RMK AO2 =
2016-09-24 02:15 METAR KJYO 240615Z AUTO 00000KT 10SM CLR 21/19 A3001 RMK AO2 =
2016-09-24 01:55 METAR KJYO 240555Z AUTO 00000KT 10SM CLR 20/18 A3001 RMK AO2 =
2016-09-24 01:35 METAR KJYO 240535Z AUTO 00000KT 10SM CLR 20/19 A3001 RMK AO2 =
2016-09-24 01:15 METAR KJYO 240515Z AUTO 00000KT 10SM CLR 22/19 A3001 RMK AO2 =
2016-09-24 00:55 METAR KJYO 240455Z AUTO 00000KT 10SM CLR 22/19 A3001 RMK AO2 =
2016-09-24 00:35 METAR KJYO 240435Z AUTO 00000KT 10SM CLR 22/19 A3001 RMK AO2 =
2016-09-24 00:15 METAR KJYO 240415Z AUTO 28003KT 10SM CLR 22/19 A3002 RMK AO2 =
2016-09-23 23:55 METAR KJYO 240355Z AUTO 28004KT 10SM CLR 22/19 A3002 RMK AO2 =
2016-09-23 23:35 METAR KJYO 240335Z AUTO 27004KT 10SM CLR 22/19 A3002 RMK AO2 =
2016-09-23 23:15 METAR KJYO 240315Z AUTO 20004KT 10SM CLR 22/19 A3002 RMK AO2 =
2016-09-23 22:55 METAR KJYO 240255Z AUTO 00000KT 10SM CLR 23/18 A3001 RMK AO2 =
2016-09-23 22:35 METAR KJYO 240235Z AUTO 00000KT 10SM CLR 24/18 A3001 RMK AO2 =
2016-09-23 22:15 METAR KJYO 240215Z AUTO 26004KT 10SM CLR 23/18 A3001 RMK AO2 =
2016-09-23 21:55 METAR KJYO 240155Z AUTO 23004KT 10SM CLR 24/18 A3001 RMK AO2 =
2016-09-23 21:35 METAR KJYO 240135Z AUTO 26005KT 10SM CLR 23/18 A3001 RMK AO2 =
2016-09-23 21:15 METAR KJYO 240115Z AUTO 27005KT 10SM CLR 23/19 A3000 RMK AO2 =
2016-09-23 20:55 METAR KJYO 240055Z AUTO 26004KT 10SM CLR 23/19 A3000 RMK AO2 =
2016-09-23 20:35 METAR KJYO 240035Z AUTO 27004KT 10SM CLR 23/20 A3000 RMK AO2 =
2016-09-23 20:15 METAR KJYO 240015Z AUTO 28003KT 10SM CLR 24/20 A2999 RMK AO2 =
2016-09-23 19:55 METAR KJYO 232355Z AUTO 00000KT 10SM CLR 25/19 A2999 RMK AO2 =
2016-09-23 19:35 METAR KJYO 232335Z AUTO 00000KT 10SM CLR 27/18 A2998 RMK AO2 =
2016-09-23 19:15 METAR KJYO 232315Z AUTO 21003KT 10SM CLR 28/18 A2998 RMK AO2 =
2016-09-23 18:55 METAR KJYO 232255Z AUTO 00000KT 10SM CLR 30/17 A2999 RMK AO2 =
2016-09-23 18:35 METAR KJYO 232235Z AUTO 00000KT 10SM CLR 31/16 A2998 RMK AO2 =

Support USWX by starting your Amazon purchase here.